CheckWX is a tool to help pilots better visualize weather data.  It is not intended as a substitute for an official pre-flight weather briefing.

06:46:42 UTC

KAPF TAF
Naples Municipal Airport
Naples, Florida, USA
KAPF 160520Z 1606/1706 VRB03KT P6SM SCT030 SCT100 FM161400 14006KT P6SM SCT030 FM161800 22008KT P6SM VCSH SCT025 BKN050 PROB30 1618/1624 VRB15G25KT 3SM TSRA SCT025CB BKN050 FM170300 08007KT P6SM SCT025 SCT050 BKN100

Jun-16@
06:00 UTC

Jun-16 @ 06:00 UTC

Jun-16@
14:00 UTC

Jun-16 @ 14:00 UTC

KAPF 160520Z 1606/1706 VRB03KT P6SM SCT030 SCT100
Wind
  • Variable at 3 KTS
Cloud Levels
  • Scattered at 3,000' AGL
  • Scattered at 10,000' AGL

Jun-16@
14:00 UTC

Jun-16 @ 14:00 UTC

Jun-16@
18:00 UTC

Jun-16 @ 18:00 UTC

FM161400 14006KT P6SM SCT030

From

From Standard forecast or significant change

Wind
  • 140° at 6 KTS
Cloud Levels
  • Scattered at 3,000' AGL

Jun-16@
18:00 UTC

Jun-16 @ 18:00 UTC

Jun-17@
00:00 UTC

Jun-17 @ 00:00 UTC

PROB30 1618/1624 VRB15G25KT 3SM TSRA SCT025CB BKN050

Probable - 30% Likelihood

Probable - 30% Likelihood during this time.

Wind
  • Variable at 15 KTS
  • {Gusting to 25 KTS
Conditions
Thunderstorm, Rain
Cloud Levels
  • Scattered at 2,500' AGL
  • Broken at 5,000' AGL

Jun-16@
18:00 UTC

Jun-16 @ 18:00 UTC

Jun-17@
03:00 UTC

Jun-17 @ 03:00 UTC

FM161800 22008KT P6SM VCSH SCT025 BKN050

From

From Standard forecast or significant change

Wind
  • 220° at 8 KTS
Cloud Levels
  • Scattered at 2,500' AGL
  • Broken at 5,000' AGL

Jun-17@
03:00 UTC

Jun-17 @ 03:00 UTC

Jun-17@
06:00 UTC

Jun-17 @ 06:00 UTC

FM170300 08007KT P6SM SCT025 SCT050 BKN100

From

From Standard forecast or significant change

Wind
  • 080° at 7 KTS
Cloud Levels
  • Scattered at 2,500' AGL
  • Scattered at 5,000' AGL
  • Broken at 10,000' AGL